<?xml version="1.0" encoding="UTF-8" standalone="no" ?>
<gpx xmlns="http://www.topografix.com/GPX/1/1" xmlns:xsi="http://www.w3.org/2001/XMLSchema-instance" xsi:schemaLocation="http://www.topografix.com/GPX/1/1 http://www.topografix.com/GPX/1/1/gpx.xsd" version="1.1" creator="VisuGPX - https://www.visugpx.com">
  <metadata>
    <name>Cairn de Barnenez</name>
  </metadata>
  <trk>
    <name><![CDATA[Randonnée du 18/08/2022 à 09:41]]></name>
    <extensions>
      <line xmlns="http://www.topografix.com/GPX/gpx_style/0/2">
        <color>0000FF</color>
        <width>4</width>
      </line>
    </extensions>
    <trkseg>
      <trkpt lat="48.62954" lon="-3.84535">
        <ele>56</ele>
        <time>2022-08-18T09:41:56+02:00</time>
      </trkpt>
      <trkpt lat="48.62974" lon="-3.84555">
        <ele>52</ele>
        <time>2022-08-18T09:42:16+02:00</time>
      </trkpt>
      <trkpt lat="48.62987" lon="-3.84587">
        <ele>57</ele>
        <time>2022-08-18T09:42:37+02:00</time>
      </trkpt>
      <trkpt lat="48.63004" lon="-3.84617">
        <ele>57</ele>
        <time>2022-08-18T09:42:58+02:00</time>
      </trkpt>
      <trkpt lat="48.63025" lon="-3.84636">
        <ele>56</ele>
        <time>2022-08-18T09:43:18+02:00</time>
      </trkpt>
      <trkpt lat="48.63045" lon="-3.84659">
        <ele>57</ele>
        <time>2022-08-18T09:43:37+02:00</time>
      </trkpt>
      <trkpt lat="48.63061" lon="-3.84684">
        <ele>57</ele>
        <time>2022-08-18T09:43:54+02:00</time>
      </trkpt>
      <trkpt lat="48.6308" lon="-3.84709">
        <ele>57</ele>
        <time>2022-08-18T09:44:15+02:00</time>
      </trkpt>
      <trkpt lat="48.6309" lon="-3.8474">
        <ele>57</ele>
        <time>2022-08-18T09:44:37+02:00</time>
      </trkpt>
      <trkpt lat="48.63106" lon="-3.84767">
        <ele>57</ele>
        <time>2022-08-18T09:44:54+02:00</time>
      </trkpt>
      <trkpt lat="48.63129" lon="-3.84769">
        <ele>57</ele>
        <time>2022-08-18T09:45:11+02:00</time>
      </trkpt>
      <trkpt lat="48.63152" lon="-3.84757">
        <ele>56</ele>
        <time>2022-08-18T09:45:32+02:00</time>
      </trkpt>
      <trkpt lat="48.63174" lon="-3.84763">
        <ele>56</ele>
        <time>2022-08-18T09:45:48+02:00</time>
      </trkpt>
      <trkpt lat="48.63197" lon="-3.8477">
        <ele>56</ele>
        <time>2022-08-18T09:46:05+02:00</time>
      </trkpt>
      <trkpt lat="48.63221" lon="-3.8477">
        <ele>56</ele>
        <time>2022-08-18T09:46:20+02:00</time>
      </trkpt>
      <trkpt lat="48.63244" lon="-3.84785">
        <ele>56</ele>
        <time>2022-08-18T09:46:37+02:00</time>
      </trkpt>
      <trkpt lat="48.63269" lon="-3.84791">
        <ele>56</ele>
        <time>2022-08-18T09:46:53+02:00</time>
      </trkpt>
      <trkpt lat="48.63273" lon="-3.84791">
        <ele>56</ele>
        <time>2022-08-18T10:00:41+02:00</time>
      </trkpt>
      <trkpt lat="48.63296" lon="-3.84793">
        <ele>77</ele>
        <time>2022-08-18T10:00:58+02:00</time>
      </trkpt>
      <trkpt lat="48.6332" lon="-3.84805">
        <ele>58</ele>
        <time>2022-08-18T10:01:17+02:00</time>
      </trkpt>
      <trkpt lat="48.63345" lon="-3.84816">
        <ele>58</ele>
        <time>2022-08-18T10:01:35+02:00</time>
      </trkpt>
      <trkpt lat="48.63367" lon="-3.84824">
        <ele>58</ele>
        <time>2022-08-18T10:01:49+02:00</time>
      </trkpt>
      <trkpt lat="48.63391" lon="-3.84825">
        <ele>58</ele>
        <time>2022-08-18T10:02:05+02:00</time>
      </trkpt>
      <trkpt lat="48.63413" lon="-3.8484">
        <ele>58</ele>
        <time>2022-08-18T10:02:21+02:00</time>
      </trkpt>
      <trkpt lat="48.63435" lon="-3.84849">
        <ele>58</ele>
        <time>2022-08-18T10:02:38+02:00</time>
      </trkpt>
      <trkpt lat="48.63456" lon="-3.84864">
        <ele>58</ele>
        <time>2022-08-18T10:02:53+02:00</time>
      </trkpt>
      <trkpt lat="48.63479" lon="-3.84877">
        <ele>55</ele>
        <time>2022-08-18T10:03:11+02:00</time>
      </trkpt>
      <trkpt lat="48.63502" lon="-3.8488">
        <ele>53</ele>
        <time>2022-08-18T10:03:26+02:00</time>
      </trkpt>
      <trkpt lat="48.63525" lon="-3.84891">
        <ele>54</ele>
        <time>2022-08-18T10:03:43+02:00</time>
      </trkpt>
      <trkpt lat="48.63551" lon="-3.8489">
        <ele>58</ele>
        <time>2022-08-18T10:04:00+02:00</time>
      </trkpt>
      <trkpt lat="48.63573" lon="-3.8489">
        <ele>63</ele>
        <time>2022-08-18T10:04:14+02:00</time>
      </trkpt>
      <trkpt lat="48.63597" lon="-3.84888">
        <ele>56</ele>
        <time>2022-08-18T10:04:32+02:00</time>
      </trkpt>
      <trkpt lat="48.63621" lon="-3.8488">
        <ele>53</ele>
        <time>2022-08-18T10:04:49+02:00</time>
      </trkpt>
      <trkpt lat="48.63645" lon="-3.84882">
        <ele>55</ele>
        <time>2022-08-18T10:05:10+02:00</time>
      </trkpt>
      <trkpt lat="48.63662" lon="-3.84907">
        <ele>57</ele>
        <time>2022-08-18T10:05:33+02:00</time>
      </trkpt>
      <trkpt lat="48.63686" lon="-3.84901">
        <ele>55</ele>
        <time>2022-08-18T10:05:49+02:00</time>
      </trkpt>
      <trkpt lat="48.63711" lon="-3.84893">
        <ele>56</ele>
        <time>2022-08-18T10:06:07+02:00</time>
      </trkpt>
      <trkpt lat="48.63735" lon="-3.84889">
        <ele>54</ele>
        <time>2022-08-18T10:06:23+02:00</time>
      </trkpt>
      <trkpt lat="48.63758" lon="-3.84885">
        <ele>54</ele>
        <time>2022-08-18T10:06:42+02:00</time>
      </trkpt>
      <trkpt lat="48.63781" lon="-3.84885">
        <ele>55</ele>
        <time>2022-08-18T10:07:01+02:00</time>
      </trkpt>
      <trkpt lat="48.63803" lon="-3.84901">
        <ele>56</ele>
        <time>2022-08-18T10:07:18+02:00</time>
      </trkpt>
      <trkpt lat="48.63826" lon="-3.84904">
        <ele>56</ele>
        <time>2022-08-18T10:07:37+02:00</time>
      </trkpt>
      <trkpt lat="48.63846" lon="-3.84921">
        <ele>58</ele>
        <time>2022-08-18T10:08:06+02:00</time>
      </trkpt>
      <trkpt lat="48.63849" lon="-3.84955">
        <ele>57</ele>
        <time>2022-08-18T10:08:30+02:00</time>
      </trkpt>
      <trkpt lat="48.63854" lon="-3.84989">
        <ele>56</ele>
        <time>2022-08-18T10:08:50+02:00</time>
      </trkpt>
      <trkpt lat="48.63868" lon="-3.85021">
        <ele>56</ele>
        <time>2022-08-18T10:10:07+02:00</time>
      </trkpt>
      <trkpt lat="48.63884" lon="-3.85047">
        <ele>52</ele>
        <time>2022-08-18T10:10:47+02:00</time>
      </trkpt>
      <trkpt lat="48.63906" lon="-3.85056">
        <ele>57</ele>
        <time>2022-08-18T10:11:05+02:00</time>
      </trkpt>
      <trkpt lat="48.63929" lon="-3.85066">
        <ele>55</ele>
        <time>2022-08-18T10:11:20+02:00</time>
      </trkpt>
      <trkpt lat="48.63953" lon="-3.85069">
        <ele>54</ele>
        <time>2022-08-18T10:11:39+02:00</time>
      </trkpt>
      <trkpt lat="48.63977" lon="-3.8506">
        <ele>56</ele>
        <time>2022-08-18T10:11:57+02:00</time>
      </trkpt>
      <trkpt lat="48.64" lon="-3.85051">
        <ele>55</ele>
        <time>2022-08-18T10:12:13+02:00</time>
      </trkpt>
      <trkpt lat="48.64023" lon="-3.85058">
        <ele>56</ele>
        <time>2022-08-18T10:12:31+02:00</time>
      </trkpt>
      <trkpt lat="48.64045" lon="-3.85073">
        <ele>57</ele>
        <time>2022-08-18T10:12:55+02:00</time>
      </trkpt>
      <trkpt lat="48.64066" lon="-3.85088">
        <ele>56</ele>
        <time>2022-08-18T10:13:13+02:00</time>
      </trkpt>
      <trkpt lat="48.64087" lon="-3.85102">
        <ele>55</ele>
        <time>2022-08-18T10:13:30+02:00</time>
      </trkpt>
      <trkpt lat="48.64113" lon="-3.85109">
        <ele>52</ele>
        <time>2022-08-18T10:14:00+02:00</time>
      </trkpt>
      <trkpt lat="48.64137" lon="-3.85116">
        <ele>53</ele>
        <time>2022-08-18T10:14:18+02:00</time>
      </trkpt>
      <trkpt lat="48.6416" lon="-3.85112">
        <ele>55</ele>
        <time>2022-08-18T10:14:37+02:00</time>
      </trkpt>
      <trkpt lat="48.64185" lon="-3.85121">
        <ele>56</ele>
        <time>2022-08-18T10:15:04+02:00</time>
      </trkpt>
      <trkpt lat="48.64207" lon="-3.85133">
        <ele>59</ele>
        <time>2022-08-18T10:15:17+02:00</time>
      </trkpt>
      <trkpt lat="48.64227" lon="-3.85152">
        <ele>58</ele>
        <time>2022-08-18T10:15:38+02:00</time>
      </trkpt>
      <trkpt lat="48.6425" lon="-3.85163">
        <ele>59</ele>
        <time>2022-08-18T10:15:58+02:00</time>
      </trkpt>
      <trkpt lat="48.64271" lon="-3.85173">
        <ele>59</ele>
        <time>2022-08-18T10:16:19+02:00</time>
      </trkpt>
      <trkpt lat="48.64293" lon="-3.85185">
        <ele>59</ele>
        <time>2022-08-18T10:16:39+02:00</time>
      </trkpt>
      <trkpt lat="48.64316" lon="-3.85193">
        <ele>64</ele>
        <time>2022-08-18T10:17:00+02:00</time>
      </trkpt>
      <trkpt lat="48.64339" lon="-3.85201">
        <ele>62</ele>
        <time>2022-08-18T10:17:14+02:00</time>
      </trkpt>
      <trkpt lat="48.64363" lon="-3.85208">
        <ele>62</ele>
        <time>2022-08-18T10:17:28+02:00</time>
      </trkpt>
      <trkpt lat="48.64387" lon="-3.85211">
        <ele>60</ele>
        <time>2022-08-18T10:17:46+02:00</time>
      </trkpt>
      <trkpt lat="48.64409" lon="-3.85222">
        <ele>62</ele>
        <time>2022-08-18T10:18:03+02:00</time>
      </trkpt>
      <trkpt lat="48.64431" lon="-3.85232">
        <ele>64</ele>
        <time>2022-08-18T10:18:18+02:00</time>
      </trkpt>
      <trkpt lat="48.64454" lon="-3.85235">
        <ele>63</ele>
        <time>2022-08-18T10:18:37+02:00</time>
      </trkpt>
      <trkpt lat="48.64476" lon="-3.8524">
        <ele>61</ele>
        <time>2022-08-18T10:18:54+02:00</time>
      </trkpt>
      <trkpt lat="48.64498" lon="-3.85251">
        <ele>64</ele>
        <time>2022-08-18T10:19:13+02:00</time>
      </trkpt>
      <trkpt lat="48.64523" lon="-3.85257">
        <ele>67</ele>
        <time>2022-08-18T10:19:31+02:00</time>
      </trkpt>
      <trkpt lat="48.64544" lon="-3.85268">
        <ele>64</ele>
        <time>2022-08-18T10:20:16+02:00</time>
      </trkpt>
      <trkpt lat="48.64565" lon="-3.85287">
        <ele>63</ele>
        <time>2022-08-18T10:20:54+02:00</time>
      </trkpt>
      <trkpt lat="48.64582" lon="-3.85312">
        <ele>60</ele>
        <time>2022-08-18T10:21:21+02:00</time>
      </trkpt>
      <trkpt lat="48.64601" lon="-3.85332">
        <ele>59</ele>
        <time>2022-08-18T10:21:45+02:00</time>
      </trkpt>
      <trkpt lat="48.64621" lon="-3.85351">
        <ele>55</ele>
        <time>2022-08-18T10:22:08+02:00</time>
      </trkpt>
      <trkpt lat="48.64642" lon="-3.85366">
        <ele>55</ele>
        <time>2022-08-18T10:22:29+02:00</time>
      </trkpt>
      <trkpt lat="48.64663" lon="-3.85384">
        <ele>57</ele>
        <time>2022-08-18T10:22:50+02:00</time>
      </trkpt>
      <trkpt lat="48.64685" lon="-3.85396">
        <ele>54</ele>
        <time>2022-08-18T10:23:11+02:00</time>
      </trkpt>
      <trkpt lat="48.64708" lon="-3.85412">
        <ele>55</ele>
        <time>2022-08-18T10:23:31+02:00</time>
      </trkpt>
      <trkpt lat="48.6473" lon="-3.85427">
        <ele>53</ele>
        <time>2022-08-18T10:23:49+02:00</time>
      </trkpt>
      <trkpt lat="48.6475" lon="-3.85446">
        <ele>51</ele>
        <time>2022-08-18T10:24:07+02:00</time>
      </trkpt>
      <trkpt lat="48.64765" lon="-3.85472">
        <ele>53</ele>
        <time>2022-08-18T10:24:24+02:00</time>
      </trkpt>
      <trkpt lat="48.64783" lon="-3.85495">
        <ele>51</ele>
        <time>2022-08-18T10:24:41+02:00</time>
      </trkpt>
      <trkpt lat="48.64802" lon="-3.85519">
        <ele>55</ele>
        <time>2022-08-18T10:25:18+02:00</time>
      </trkpt>
      <trkpt lat="48.64818" lon="-3.85543">
        <ele>53</ele>
        <time>2022-08-18T10:25:34+02:00</time>
      </trkpt>
      <trkpt lat="48.6483" lon="-3.85575">
        <ele>51</ele>
        <time>2022-08-18T10:25:52+02:00</time>
      </trkpt>
      <trkpt lat="48.64851" lon="-3.85594">
        <ele>53</ele>
        <time>2022-08-18T10:26:12+02:00</time>
      </trkpt>
      <trkpt lat="48.64872" lon="-3.85608">
        <ele>54</ele>
        <time>2022-08-18T10:26:28+02:00</time>
      </trkpt>
      <trkpt lat="48.64894" lon="-3.85616">
        <ele>56</ele>
        <time>2022-08-18T10:26:47+02:00</time>
      </trkpt>
      <trkpt lat="48.64916" lon="-3.85607">
        <ele>55</ele>
        <time>2022-08-18T10:27:04+02:00</time>
      </trkpt>
      <trkpt lat="48.64936" lon="-3.85589">
        <ele>54</ele>
        <time>2022-08-18T10:27:21+02:00</time>
      </trkpt>
      <trkpt lat="48.6496" lon="-3.85581">
        <ele>58</ele>
        <time>2022-08-18T10:28:38+02:00</time>
      </trkpt>
      <trkpt lat="48.64984" lon="-3.85566">
        <ele>56</ele>
        <time>2022-08-18T10:29:26+02:00</time>
      </trkpt>
      <trkpt lat="48.65008" lon="-3.85565">
        <ele>65</ele>
        <time>2022-08-18T10:29:45+02:00</time>
      </trkpt>
      <trkpt lat="48.6503" lon="-3.85564">
        <ele>68</ele>
        <time>2022-08-18T10:30:03+02:00</time>
      </trkpt>
      <trkpt lat="48.65053" lon="-3.85552">
        <ele>68</ele>
        <time>2022-08-18T10:30:26+02:00</time>
      </trkpt>
      <trkpt lat="48.65078" lon="-3.85555">
        <ele>73</ele>
        <time>2022-08-18T10:30:45+02:00</time>
      </trkpt>
      <trkpt lat="48.65101" lon="-3.85565">
        <ele>69</ele>
        <time>2022-08-18T10:31:05+02:00</time>
      </trkpt>
      <trkpt lat="48.65125" lon="-3.85564">
        <ele>68</ele>
        <time>2022-08-18T10:31:24+02:00</time>
      </trkpt>
      <trkpt lat="48.65148" lon="-3.8557">
        <ele>69</ele>
        <time>2022-08-18T10:31:41+02:00</time>
      </trkpt>
      <trkpt lat="48.65171" lon="-3.85577">
        <ele>73</ele>
        <time>2022-08-18T10:32:06+02:00</time>
      </trkpt>
      <trkpt lat="48.65191" lon="-3.85596">
        <ele>73</ele>
        <time>2022-08-18T10:32:26+02:00</time>
      </trkpt>
      <trkpt lat="48.65211" lon="-3.85616">
        <ele>77</ele>
        <time>2022-08-18T10:32:51+02:00</time>
      </trkpt>
      <trkpt lat="48.65214" lon="-3.85652">
        <ele>70</ele>
        <time>2022-08-18T10:33:26+02:00</time>
      </trkpt>
      <trkpt lat="48.65234" lon="-3.85671">
        <ele>65</ele>
        <time>2022-08-18T10:33:45+02:00</time>
      </trkpt>
      <trkpt lat="48.65257" lon="-3.8568">
        <ele>65</ele>
        <time>2022-08-18T10:34:39+02:00</time>
      </trkpt>
      <trkpt lat="48.65278" lon="-3.85693">
        <ele>62</ele>
        <time>2022-08-18T10:35:00+02:00</time>
      </trkpt>
      <trkpt lat="48.65302" lon="-3.85686">
        <ele>67</ele>
        <time>2022-08-18T10:35:20+02:00</time>
      </trkpt>
      <trkpt lat="48.65326" lon="-3.85688">
        <ele>66</ele>
        <time>2022-08-18T10:35:41+02:00</time>
      </trkpt>
      <trkpt lat="48.65349" lon="-3.85686">
        <ele>66</ele>
        <time>2022-08-18T10:35:59+02:00</time>
      </trkpt>
      <trkpt lat="48.65374" lon="-3.85683">
        <ele>67</ele>
        <time>2022-08-18T10:36:19+02:00</time>
      </trkpt>
      <trkpt lat="48.65397" lon="-3.85693">
        <ele>64</ele>
        <time>2022-08-18T10:36:44+02:00</time>
      </trkpt>
      <trkpt lat="48.6542" lon="-3.85681">
        <ele>69</ele>
        <time>2022-08-18T10:37:03+02:00</time>
      </trkpt>
      <trkpt lat="48.65444" lon="-3.85684">
        <ele>75</ele>
        <time>2022-08-18T10:38:37+02:00</time>
      </trkpt>
      <trkpt lat="48.65465" lon="-3.85696">
        <ele>70</ele>
        <time>2022-08-18T10:38:58+02:00</time>
      </trkpt>
      <trkpt lat="48.6549" lon="-3.85693">
        <ele>68</ele>
        <time>2022-08-18T10:39:18+02:00</time>
      </trkpt>
      <trkpt lat="48.65513" lon="-3.85702">
        <ele>66</ele>
        <time>2022-08-18T10:40:42+02:00</time>
      </trkpt>
      <trkpt lat="48.65536" lon="-3.85713">
        <ele>63</ele>
        <time>2022-08-18T10:41:21+02:00</time>
      </trkpt>
      <trkpt lat="48.65561" lon="-3.85715">
        <ele>64</ele>
        <time>2022-08-18T10:41:51+02:00</time>
      </trkpt>
      <trkpt lat="48.65585" lon="-3.85706">
        <ele>66</ele>
        <time>2022-08-18T10:42:11+02:00</time>
      </trkpt>
      <trkpt lat="48.65607" lon="-3.85693">
        <ele>65</ele>
        <time>2022-08-18T10:42:27+02:00</time>
      </trkpt>
      <trkpt lat="48.65632" lon="-3.85695">
        <ele>67</ele>
        <time>2022-08-18T10:42:57+02:00</time>
      </trkpt>
      <trkpt lat="48.65654" lon="-3.85706">
        <ele>68</ele>
        <time>2022-08-18T10:43:13+02:00</time>
      </trkpt>
      <trkpt lat="48.65678" lon="-3.85717">
        <ele>69</ele>
        <time>2022-08-18T10:43:29+02:00</time>
      </trkpt>
      <trkpt lat="48.65698" lon="-3.85736">
        <ele>68</ele>
        <time>2022-08-18T10:43:50+02:00</time>
      </trkpt>
      <trkpt lat="48.65713" lon="-3.85762">
        <ele>67</ele>
        <time>2022-08-18T10:44:07+02:00</time>
      </trkpt>
      <trkpt lat="48.65729" lon="-3.85786">
        <ele>62</ele>
        <time>2022-08-18T10:44:30+02:00</time>
      </trkpt>
      <trkpt lat="48.65752" lon="-3.85791">
        <ele>63</ele>
        <time>2022-08-18T10:44:49+02:00</time>
      </trkpt>
      <trkpt lat="48.65775" lon="-3.85791">
        <ele>61</ele>
        <time>2022-08-18T10:45:09+02:00</time>
      </trkpt>
      <trkpt lat="48.65798" lon="-3.85786">
        <ele>65</ele>
        <time>2022-08-18T10:45:29+02:00</time>
      </trkpt>
      <trkpt lat="48.65817" lon="-3.85767">
        <ele>68</ele>
        <time>2022-08-18T10:45:48+02:00</time>
      </trkpt>
      <trkpt lat="48.65834" lon="-3.85743">
        <ele>72</ele>
        <time>2022-08-18T10:46:10+02:00</time>
      </trkpt>
      <trkpt lat="48.65853" lon="-3.85723">
        <ele>76</ele>
        <time>2022-08-18T10:46:38+02:00</time>
      </trkpt>
      <trkpt lat="48.65877" lon="-3.85717">
        <ele>75</ele>
        <time>2022-08-18T10:47:05+02:00</time>
      </trkpt>
      <trkpt lat="48.65901" lon="-3.85723">
        <ele>68</ele>
        <time>2022-08-18T10:47:28+02:00</time>
      </trkpt>
      <trkpt lat="48.65924" lon="-3.85718">
        <ele>67</ele>
        <time>2022-08-18T10:47:45+02:00</time>
      </trkpt>
      <trkpt lat="48.65947" lon="-3.85703">
        <ele>72</ele>
        <time>2022-08-18T10:48:07+02:00</time>
      </trkpt>
      <trkpt lat="48.65969" lon="-3.85694">
        <ele>69</ele>
        <time>2022-08-18T10:48:22+02:00</time>
      </trkpt>
      <trkpt lat="48.65988" lon="-3.85674">
        <ele>72</ele>
        <time>2022-08-18T10:48:45+02:00</time>
      </trkpt>
      <trkpt lat="48.66012" lon="-3.85668">
        <ele>73</ele>
        <time>2022-08-18T10:49:12+02:00</time>
      </trkpt>
      <trkpt lat="48.6603" lon="-3.85693">
        <ele>134</ele>
        <time>2022-08-18T10:49:48+02:00</time>
      </trkpt>
      <trkpt lat="48.66047" lon="-3.85666">
        <ele>68</ele>
        <time>2022-08-18T10:51:21+02:00</time>
      </trkpt>
      <trkpt lat="48.66067" lon="-3.85642">
        <ele>71</ele>
        <time>2022-08-18T10:51:51+02:00</time>
      </trkpt>
      <trkpt lat="48.66092" lon="-3.85638">
        <ele>71</ele>
        <time>2022-08-18T10:53:12+02:00</time>
      </trkpt>
      <trkpt lat="48.66117" lon="-3.85629">
        <ele>72</ele>
        <time>2022-08-18T10:53:34+02:00</time>
      </trkpt>
      <trkpt lat="48.66141" lon="-3.85645">
        <ele>70</ele>
        <time>2022-08-18T10:54:11+02:00</time>
      </trkpt>
      <trkpt lat="48.66162" lon="-3.85658">
        <ele>63</ele>
        <time>2022-08-18T10:54:36+02:00</time>
      </trkpt>
      <trkpt lat="48.66184" lon="-3.85671">
        <ele>65</ele>
        <time>2022-08-18T10:55:06+02:00</time>
      </trkpt>
      <trkpt lat="48.66204" lon="-3.85692">
        <ele>67</ele>
        <time>2022-08-18T10:55:53+02:00</time>
      </trkpt>
      <trkpt lat="48.66219" lon="-3.85719">
        <ele>62</ele>
        <time>2022-08-18T10:56:16+02:00</time>
      </trkpt>
      <trkpt lat="48.66238" lon="-3.85741">
        <ele>62</ele>
        <time>2022-08-18T10:56:34+02:00</time>
      </trkpt>
      <trkpt lat="48.66256" lon="-3.85765">
        <ele>65</ele>
        <time>2022-08-18T10:56:52+02:00</time>
      </trkpt>
      <trkpt lat="48.66272" lon="-3.85793">
        <ele>63</ele>
        <time>2022-08-18T10:57:13+02:00</time>
      </trkpt>
      <trkpt lat="48.66287" lon="-3.85821">
        <ele>64</ele>
        <time>2022-08-18T10:57:28+02:00</time>
      </trkpt>
      <trkpt lat="48.66311" lon="-3.8583">
        <ele>64</ele>
        <time>2022-08-18T11:01:12+02:00</time>
      </trkpt>
      <trkpt lat="48.66335" lon="-3.8583">
        <ele>65</ele>
        <time>2022-08-18T11:01:34+02:00</time>
      </trkpt>
      <trkpt lat="48.66357" lon="-3.85832">
        <ele>68</ele>
        <time>2022-08-18T11:02:48+02:00</time>
      </trkpt>
      <trkpt lat="48.66382" lon="-3.85833">
        <ele>70</ele>
        <time>2022-08-18T11:03:06+02:00</time>
      </trkpt>
      <trkpt lat="48.66404" lon="-3.85842">
        <ele>72</ele>
        <time>2022-08-18T11:03:22+02:00</time>
      </trkpt>
      <trkpt lat="48.66427" lon="-3.85848">
        <ele>72</ele>
        <time>2022-08-18T11:03:43+02:00</time>
      </trkpt>
      <trkpt lat="48.6645" lon="-3.85853">
        <ele>73</ele>
        <time>2022-08-18T11:03:58+02:00</time>
      </trkpt>
      <trkpt lat="48.66474" lon="-3.85853">
        <ele>70</ele>
        <time>2022-08-18T11:04:13+02:00</time>
      </trkpt>
      <trkpt lat="48.66496" lon="-3.85865">
        <ele>68</ele>
        <time>2022-08-18T11:04:32+02:00</time>
      </trkpt>
      <trkpt lat="48.66517" lon="-3.85876">
        <ele>64</ele>
        <time>2022-08-18T11:05:20+02:00</time>
      </trkpt>
      <trkpt lat="48.66536" lon="-3.85894">
        <ele>61</ele>
        <time>2022-08-18T11:05:46+02:00</time>
      </trkpt>
      <trkpt lat="48.6656" lon="-3.85913">
        <ele>59</ele>
        <time>2022-08-18T11:06:08+02:00</time>
      </trkpt>
      <trkpt lat="48.6658" lon="-3.85934">
        <ele>59</ele>
        <time>2022-08-18T11:06:25+02:00</time>
      </trkpt>
      <trkpt lat="48.66597" lon="-3.8596">
        <ele>61</ele>
        <time>2022-08-18T11:06:47+02:00</time>
      </trkpt>
      <trkpt lat="48.66615" lon="-3.85985">
        <ele>61</ele>
        <time>2022-08-18T11:07:19+02:00</time>
      </trkpt>
      <trkpt lat="48.66633" lon="-3.8601">
        <ele>60</ele>
        <time>2022-08-18T11:07:37+02:00</time>
      </trkpt>
      <trkpt lat="48.66653" lon="-3.86028">
        <ele>60</ele>
        <time>2022-08-18T11:07:59+02:00</time>
      </trkpt>
      <trkpt lat="48.66665" lon="-3.8606">
        <ele>57</ele>
        <time>2022-08-18T11:08:19+02:00</time>
      </trkpt>
      <trkpt lat="48.66679" lon="-3.86091">
        <ele>61</ele>
        <time>2022-08-18T11:08:33+02:00</time>
      </trkpt>
      <trkpt lat="48.66697" lon="-3.86112">
        <ele>60</ele>
        <time>2022-08-18T11:08:50+02:00</time>
      </trkpt>
      <trkpt lat="48.66715" lon="-3.86134">
        <ele>58</ele>
        <time>2022-08-18T11:09:10+02:00</time>
      </trkpt>
      <trkpt lat="48.66734" lon="-3.86157">
        <ele>56</ele>
        <time>2022-08-18T11:09:26+02:00</time>
      </trkpt>
      <trkpt lat="48.66755" lon="-3.86174">
        <ele>54</ele>
        <time>2022-08-18T11:09:48+02:00</time>
      </trkpt>
      <trkpt lat="48.66777" lon="-3.86187">
        <ele>57</ele>
        <time>2022-08-18T11:10:06+02:00</time>
      </trkpt>
      <trkpt lat="48.66797" lon="-3.86203">
        <ele>58</ele>
        <time>2022-08-18T11:10:20+02:00</time>
      </trkpt>
      <trkpt lat="48.66818" lon="-3.86223">
        <ele>60</ele>
        <time>2022-08-18T11:10:39+02:00</time>
      </trkpt>
      <trkpt lat="48.6684" lon="-3.86241">
        <ele>57</ele>
        <time>2022-08-18T11:10:56+02:00</time>
      </trkpt>
      <trkpt lat="48.66858" lon="-3.86265">
        <ele>58</ele>
        <time>2022-08-18T11:11:20+02:00</time>
      </trkpt>
      <trkpt lat="48.66878" lon="-3.86287">
        <ele>60</ele>
        <time>2022-08-18T11:11:37+02:00</time>
      </trkpt>
      <trkpt lat="48.66897" lon="-3.86308">
        <ele>64</ele>
        <time>2022-08-18T11:12:00+02:00</time>
      </trkpt>
      <trkpt lat="48.66923" lon="-3.86318">
        <ele>63</ele>
        <time>2022-08-18T11:12:17+02:00</time>
      </trkpt>
      <trkpt lat="48.66939" lon="-3.86343">
        <ele>67</ele>
        <time>2022-08-18T11:12:33+02:00</time>
      </trkpt>
      <trkpt lat="48.66963" lon="-3.86351">
        <ele>64</ele>
        <time>2022-08-18T11:12:53+02:00</time>
      </trkpt>
      <trkpt lat="48.66985" lon="-3.8637">
        <ele>62</ele>
        <time>2022-08-18T11:13:14+02:00</time>
      </trkpt>
      <trkpt lat="48.67004" lon="-3.86388">
        <ele>59</ele>
        <time>2022-08-18T11:13:31+02:00</time>
      </trkpt>
      <trkpt lat="48.67024" lon="-3.86407">
        <ele>59</ele>
        <time>2022-08-18T11:13:48+02:00</time>
      </trkpt>
      <trkpt lat="48.67044" lon="-3.86429">
        <ele>58</ele>
        <time>2022-08-18T11:14:08+02:00</time>
      </trkpt>
      <trkpt lat="48.67065" lon="-3.86442">
        <ele>58</ele>
        <time>2022-08-18T11:19:42+02:00</time>
      </trkpt>
      <trkpt lat="48.67087" lon="-3.8645">
        <ele>56</ele>
        <time>2022-08-18T11:20:02+02:00</time>
      </trkpt>
      <trkpt lat="48.67112" lon="-3.86447">
        <ele>58</ele>
        <time>2022-08-18T11:20:25+02:00</time>
      </trkpt>
      <trkpt lat="48.67132" lon="-3.86424">
        <ele>64</ele>
        <time>2022-08-18T11:22:13+02:00</time>
      </trkpt>
      <trkpt lat="48.67146" lon="-3.86396">
        <ele>60</ele>
        <time>2022-08-18T11:22:28+02:00</time>
      </trkpt>
      <trkpt lat="48.67163" lon="-3.86373">
        <ele>61</ele>
        <time>2022-08-18T11:22:53+02:00</time>
      </trkpt>
      <trkpt lat="48.67178" lon="-3.86344">
        <ele>61</ele>
        <time>2022-08-18T11:23:12+02:00</time>
      </trkpt>
      <trkpt lat="48.67196" lon="-3.86319">
        <ele>60</ele>
        <time>2022-08-18T11:23:29+02:00</time>
      </trkpt>
      <trkpt lat="48.67213" lon="-3.86292">
        <ele>61</ele>
        <time>2022-08-18T11:23:50+02:00</time>
      </trkpt>
      <trkpt lat="48.6723" lon="-3.86269">
        <ele>60</ele>
        <time>2022-08-18T11:24:05+02:00</time>
      </trkpt>
      <trkpt lat="48.67248" lon="-3.86246">
        <ele>61</ele>
        <time>2022-08-18T11:24:24+02:00</time>
      </trkpt>
      <trkpt lat="48.67264" lon="-3.8622">
        <ele>58</ele>
        <time>2022-08-18T11:25:07+02:00</time>
      </trkpt>
      <trkpt lat="48.67283" lon="-3.86193">
        <ele>63</ele>
        <time>2022-08-18T11:25:27+02:00</time>
      </trkpt>
      <trkpt lat="48.67287" lon="-3.86157">
        <ele>71</ele>
        <time>2022-08-18T11:27:07+02:00</time>
      </trkpt>
      <trkpt lat="48.67269" lon="-3.86132">
        <ele>76</ele>
        <time>2022-08-18T11:27:37+02:00</time>
      </trkpt>
      <trkpt lat="48.67244" lon="-3.86137">
        <ele>82</ele>
        <time>2022-08-18T11:32:45+02:00</time>
      </trkpt>
      <trkpt lat="48.67221" lon="-3.86141">
        <ele>88</ele>
        <time>2022-08-18T11:33:04+02:00</time>
      </trkpt>
      <trkpt lat="48.67212" lon="-3.86106">
        <ele>88</ele>
        <time>2022-08-18T11:33:30+02:00</time>
      </trkpt>
      <trkpt lat="48.6721" lon="-3.86072">
        <ele>87</ele>
        <time>2022-08-18T11:33:46+02:00</time>
      </trkpt>
      <trkpt lat="48.67212" lon="-3.86036">
        <ele>86</ele>
        <time>2022-08-18T11:34:07+02:00</time>
      </trkpt>
      <trkpt lat="48.67209" lon="-3.85999">
        <ele>84</ele>
        <time>2022-08-18T11:34:29+02:00</time>
      </trkpt>
      <trkpt lat="48.67206" lon="-3.85963">
        <ele>85</ele>
        <time>2022-08-18T11:34:53+02:00</time>
      </trkpt>
      <trkpt lat="48.67203" lon="-3.85928">
        <ele>88</ele>
        <time>2022-08-18T11:35:13+02:00</time>
      </trkpt>
      <trkpt lat="48.67201" lon="-3.85891">
        <ele>84</ele>
        <time>2022-08-18T11:36:03+02:00</time>
      </trkpt>
      <trkpt lat="48.672" lon="-3.85854">
        <ele>83</ele>
        <time>2022-08-18T11:36:20+02:00</time>
      </trkpt>
      <trkpt lat="48.67194" lon="-3.8582">
        <ele>84</ele>
        <time>2022-08-18T11:37:10+02:00</time>
      </trkpt>
      <trkpt lat="48.67189" lon="-3.85786">
        <ele>82</ele>
        <time>2022-08-18T11:37:31+02:00</time>
      </trkpt>
      <trkpt lat="48.67182" lon="-3.85751">
        <ele>76</ele>
        <time>2022-08-18T11:37:51+02:00</time>
      </trkpt>
      <trkpt lat="48.67177" lon="-3.85717">
        <ele>76</ele>
        <time>2022-08-18T11:38:12+02:00</time>
      </trkpt>
      <trkpt lat="48.67167" lon="-3.85684">
        <ele>76</ele>
        <time>2022-08-18T11:38:32+02:00</time>
      </trkpt>
      <trkpt lat="48.67164" lon="-3.85648">
        <ele>76</ele>
        <time>2022-08-18T11:38:54+02:00</time>
      </trkpt>
      <trkpt lat="48.67158" lon="-3.85614">
        <ele>77</ele>
        <time>2022-08-18T11:39:15+02:00</time>
      </trkpt>
      <trkpt lat="48.67157" lon="-3.8558">
        <ele>73</ele>
        <time>2022-08-18T11:39:33+02:00</time>
      </trkpt>
      <trkpt lat="48.67138" lon="-3.85558">
        <ele>67</ele>
        <time>2022-08-18T11:39:52+02:00</time>
      </trkpt>
      <trkpt lat="48.67119" lon="-3.85536">
        <ele>66</ele>
        <time>2022-08-18T11:40:12+02:00</time>
      </trkpt>
      <trkpt lat="48.67101" lon="-3.85511">
        <ele>70</ele>
        <time>2022-08-18T11:40:27+02:00</time>
      </trkpt>
      <trkpt lat="48.67082" lon="-3.85488">
        <ele>74</ele>
        <time>2022-08-18T11:40:42+02:00</time>
      </trkpt>
      <trkpt lat="48.6706" lon="-3.85474">
        <ele>71</ele>
        <time>2022-08-18T11:41:05+02:00</time>
      </trkpt>
      <trkpt lat="48.67037" lon="-3.85462">
        <ele>69</ele>
        <time>2022-08-18T11:41:20+02:00</time>
      </trkpt>
      <trkpt lat="48.67014" lon="-3.85446">
        <ele>67</ele>
        <time>2022-08-18T11:41:37+02:00</time>
      </trkpt>
      <trkpt lat="48.66991" lon="-3.8543">
        <ele>64</ele>
        <time>2022-08-18T11:41:55+02:00</time>
      </trkpt>
      <trkpt lat="48.66968" lon="-3.85419">
        <ele>59</ele>
        <time>2022-08-18T11:42:13+02:00</time>
      </trkpt>
      <trkpt lat="48.66945" lon="-3.85408">
        <ele>54</ele>
        <time>2022-08-18T11:42:32+02:00</time>
      </trkpt>
      <trkpt lat="48.66918" lon="-3.85393">
        <ele>52</ele>
        <time>2022-08-18T11:42:55+02:00</time>
      </trkpt>
      <trkpt lat="48.66896" lon="-3.85385">
        <ele>53</ele>
        <time>2022-08-18T11:43:18+02:00</time>
      </trkpt>
      <trkpt lat="48.66873" lon="-3.85397">
        <ele>59</ele>
        <time>2022-08-18T11:44:53+02:00</time>
      </trkpt>
      <trkpt lat="48.6685" lon="-3.85412">
        <ele>59</ele>
        <time>2022-08-18T11:45:16+02:00</time>
      </trkpt>
      <trkpt lat="48.66827" lon="-3.85422">
        <ele>59</ele>
        <time>2022-08-18T11:45:34+02:00</time>
      </trkpt>
      <trkpt lat="48.66802" lon="-3.85423">
        <ele>61</ele>
        <time>2022-08-18T11:45:53+02:00</time>
      </trkpt>
      <trkpt lat="48.66781" lon="-3.85437">
        <ele>61</ele>
        <time>2022-08-18T11:46:18+02:00</time>
      </trkpt>
      <trkpt lat="48.6677" lon="-3.85466">
        <ele>58</ele>
        <time>2022-08-18T11:46:43+02:00</time>
      </trkpt>
      <trkpt lat="48.66769" lon="-3.85503">
        <ele>61</ele>
        <time>2022-08-18T11:47:04+02:00</time>
      </trkpt>
      <trkpt lat="48.66748" lon="-3.85525">
        <ele>69</ele>
        <time>2022-08-18T11:47:35+02:00</time>
      </trkpt>
      <trkpt lat="48.66724" lon="-3.85522">
        <ele>67</ele>
        <time>2022-08-18T11:47:55+02:00</time>
      </trkpt>
      <trkpt lat="48.667" lon="-3.85527">
        <ele>66</ele>
        <time>2022-08-18T11:48:13+02:00</time>
      </trkpt>
      <trkpt lat="48.66682" lon="-3.85553">
        <ele>66</ele>
        <time>2022-08-18T11:48:34+02:00</time>
      </trkpt>
      <trkpt lat="48.66663" lon="-3.85571">
        <ele>71</ele>
        <time>2022-08-18T11:48:54+02:00</time>
      </trkpt>
      <trkpt lat="48.66642" lon="-3.85589">
        <ele>68</ele>
        <time>2022-08-18T11:49:13+02:00</time>
      </trkpt>
      <trkpt lat="48.66651" lon="-3.85623">
        <ele>64</ele>
        <time>2022-08-18T11:49:36+02:00</time>
      </trkpt>
      <trkpt lat="48.66664" lon="-3.85652">
        <ele>62</ele>
        <time>2022-08-18T11:50:00+02:00</time>
      </trkpt>
      <trkpt lat="48.66686" lon="-3.85668">
        <ele>61</ele>
        <time>2022-08-18T11:50:21+02:00</time>
      </trkpt>
      <trkpt lat="48.66709" lon="-3.85675">
        <ele>78</ele>
        <time>2022-08-18T11:50:51+02:00</time>
      </trkpt>
      <trkpt lat="48.66733" lon="-3.8568">
        <ele>61</ele>
        <time>2022-08-18T11:51:13+02:00</time>
      </trkpt>
      <trkpt lat="48.66756" lon="-3.85686">
        <ele>88</ele>
        <time>2022-08-18T11:51:37+02:00</time>
      </trkpt>
      <trkpt lat="48.6675" lon="-3.8572">
        <ele>86</ele>
        <time>2022-08-18T11:52:18+02:00</time>
      </trkpt>
      <trkpt lat="48.66772" lon="-3.85707">
        <ele>86</ele>
        <time>2022-08-18T11:53:44+02:00</time>
      </trkpt>
      <trkpt lat="48.66778" lon="-3.85742">
        <ele>86</ele>
        <time>2022-08-18T11:54:09+02:00</time>
      </trkpt>
      <trkpt lat="48.66772" lon="-3.85776">
        <ele>86</ele>
        <time>2022-08-18T11:54:35+02:00</time>
      </trkpt>
      <trkpt lat="48.6675" lon="-3.85784">
        <ele>91</ele>
        <time>2022-08-18T12:03:11+02:00</time>
      </trkpt>
      <trkpt lat="48.66729" lon="-3.85798">
        <ele>90</ele>
        <time>2022-08-18T12:06:31+02:00</time>
      </trkpt>
      <trkpt lat="48.6673" lon="-3.85835">
        <ele>90</ele>
        <time>2022-08-18T12:07:16+02:00</time>
      </trkpt>
      <trkpt lat="48.66743" lon="-3.85803">
        <ele>91</ele>
        <time>2022-08-18T12:07:39+02:00</time>
      </trkpt>
      <trkpt lat="48.66756" lon="-3.85774">
        <ele>93</ele>
        <time>2022-08-18T12:07:57+02:00</time>
      </trkpt>
      <trkpt lat="48.66732" lon="-3.85781">
        <ele>63</ele>
        <time>2022-08-18T12:08:32+02:00</time>
      </trkpt>
      <trkpt lat="48.66715" lon="-3.85804">
        <ele>63</ele>
        <time>2022-08-18T12:08:53+02:00</time>
      </trkpt>
      <trkpt lat="48.66729" lon="-3.85832">
        <ele>90</ele>
        <time>2022-08-18T12:11:45+02:00</time>
      </trkpt>
      <trkpt lat="48.66749" lon="-3.85849">
        <ele>95</ele>
        <time>2022-08-18T12:12:20+02:00</time>
      </trkpt>
      <trkpt lat="48.66761" lon="-3.85878">
        <ele>92</ele>
        <time>2022-08-18T12:13:21+02:00</time>
      </trkpt>
      <trkpt lat="48.66778" lon="-3.8585">
        <ele>95</ele>
        <time>2022-08-18T12:16:25+02:00</time>
      </trkpt>
      <trkpt lat="48.66786" lon="-3.85816">
        <ele>96</ele>
        <time>2022-08-18T12:16:46+02:00</time>
      </trkpt>
      <trkpt lat="48.66778" lon="-3.85784">
        <ele>94</ele>
        <time>2022-08-18T12:17:07+02:00</time>
      </trkpt>
      <trkpt lat="48.66782" lon="-3.85746">
        <ele>93</ele>
        <time>2022-08-18T12:17:30+02:00</time>
      </trkpt>
      <trkpt lat="48.6678" lon="-3.85713">
        <ele>90</ele>
        <time>2022-08-18T12:17:53+02:00</time>
      </trkpt>
      <trkpt lat="48.66757" lon="-3.85708">
        <ele>86</ele>
        <time>2022-08-18T12:18:33+02:00</time>
      </trkpt>
      <trkpt lat="48.66749" lon="-3.85675">
        <ele>86</ele>
        <time>2022-08-18T12:20:38+02:00</time>
      </trkpt>
      <trkpt lat="48.66726" lon="-3.8567">
        <ele>77</ele>
        <time>2022-08-18T12:21:00+02:00</time>
      </trkpt>
      <trkpt lat="48.66703" lon="-3.85667">
        <ele>74</ele>
        <time>2022-08-18T12:21:24+02:00</time>
      </trkpt>
      <trkpt lat="48.66682" lon="-3.85657">
        <ele>71</ele>
        <time>2022-08-18T12:21:43+02:00</time>
      </trkpt>
      <trkpt lat="48.66661" lon="-3.85638">
        <ele>66</ele>
        <time>2022-08-18T12:22:05+02:00</time>
      </trkpt>
      <trkpt lat="48.66644" lon="-3.8561">
        <ele>62</ele>
        <time>2022-08-18T12:22:27+02:00</time>
      </trkpt>
      <trkpt lat="48.66622" lon="-3.85621">
        <ele>62</ele>
        <time>2022-08-18T12:23:06+02:00</time>
      </trkpt>
      <trkpt lat="48.66604" lon="-3.85645">
        <ele>61</ele>
        <time>2022-08-18T12:23:22+02:00</time>
      </trkpt>
      <trkpt lat="48.66589" lon="-3.85671">
        <ele>66</ele>
        <time>2022-08-18T12:23:42+02:00</time>
      </trkpt>
      <trkpt lat="48.66577" lon="-3.857">
        <ele>71</ele>
        <time>2022-08-18T12:24:17+02:00</time>
      </trkpt>
      <trkpt lat="48.66562" lon="-3.85731">
        <ele>62</ele>
        <time>2022-08-18T12:24:49+02:00</time>
      </trkpt>
      <trkpt lat="48.66549" lon="-3.85762">
        <ele>62</ele>
        <time>2022-08-18T12:25:13+02:00</time>
      </trkpt>
      <trkpt lat="48.66526" lon="-3.85773">
        <ele>62</ele>
        <time>2022-08-18T12:25:35+02:00</time>
      </trkpt>
      <trkpt lat="48.66507" lon="-3.85751">
        <ele>62</ele>
        <time>2022-08-18T12:26:39+02:00</time>
      </trkpt>
      <trkpt lat="48.66486" lon="-3.85729">
        <ele>71</ele>
        <time>2022-08-18T12:27:15+02:00</time>
      </trkpt>
      <trkpt lat="48.66468" lon="-3.85705">
        <ele>71</ele>
        <time>2022-08-18T12:27:40+02:00</time>
      </trkpt>
      <trkpt lat="48.66453" lon="-3.85676">
        <ele>63</ele>
        <time>2022-08-18T12:28:03+02:00</time>
      </trkpt>
      <trkpt lat="48.66434" lon="-3.85656">
        <ele>63</ele>
        <time>2022-08-18T12:28:24+02:00</time>
      </trkpt>
      <trkpt lat="48.66416" lon="-3.85633">
        <ele>58</ele>
        <time>2022-08-18T12:28:42+02:00</time>
      </trkpt>
      <trkpt lat="48.66398" lon="-3.85609">
        <ele>58</ele>
        <time>2022-08-18T12:29:05+02:00</time>
      </trkpt>
      <trkpt lat="48.66373" lon="-3.85603">
        <ele>58</ele>
        <time>2022-08-18T12:29:43+02:00</time>
      </trkpt>
      <trkpt lat="48.6635" lon="-3.85596">
        <ele>52</ele>
        <time>2022-08-18T12:30:05+02:00</time>
      </trkpt>
      <trkpt lat="48.66327" lon="-3.85588">
        <ele>56</ele>
        <time>2022-08-18T12:30:34+02:00</time>
      </trkpt>
      <trkpt lat="48.66305" lon="-3.85602">
        <ele>67</ele>
        <time>2022-08-18T12:31:41+02:00</time>
      </trkpt>
      <trkpt lat="48.66282" lon="-3.85609">
        <ele>63</ele>
        <time>2022-08-18T12:32:01+02:00</time>
      </trkpt>
      <trkpt lat="48.66262" lon="-3.85627">
        <ele>64</ele>
        <time>2022-08-18T12:32:20+02:00</time>
      </trkpt>
      <trkpt lat="48.66238" lon="-3.85637">
        <ele>67</ele>
        <time>2022-08-18T12:32:40+02:00</time>
      </trkpt>
      <trkpt lat="48.66218" lon="-3.85622">
        <ele>68</ele>
        <time>2022-08-18T12:32:56+02:00</time>
      </trkpt>
      <trkpt lat="48.66194" lon="-3.85619">
        <ele>68</ele>
        <time>2022-08-18T12:33:17+02:00</time>
      </trkpt>
      <trkpt lat="48.66181" lon="-3.85589">
        <ele>67</ele>
        <time>2022-08-18T12:33:40+02:00</time>
      </trkpt>
      <trkpt lat="48.66175" lon="-3.85553">
        <ele>67</ele>
        <time>2022-08-18T12:34:02+02:00</time>
      </trkpt>
      <trkpt lat="48.66169" lon="-3.85519">
        <ele>65</ele>
        <time>2022-08-18T12:34:24+02:00</time>
      </trkpt>
      <trkpt lat="48.66163" lon="-3.85485">
        <ele>65</ele>
        <time>2022-08-18T12:34:43+02:00</time>
      </trkpt>
      <trkpt lat="48.66152" lon="-3.85455">
        <ele>59</ele>
        <time>2022-08-18T12:35:03+02:00</time>
      </trkpt>
      <trkpt lat="48.66139" lon="-3.85425">
        <ele>60</ele>
        <time>2022-08-18T12:35:24+02:00</time>
      </trkpt>
      <trkpt lat="48.66124" lon="-3.85397">
        <ele>59</ele>
        <time>2022-08-18T12:35:43+02:00</time>
      </trkpt>
      <trkpt lat="48.66111" lon="-3.85368">
        <ele>56</ele>
        <time>2022-08-18T12:36:02+02:00</time>
      </trkpt>
      <trkpt lat="48.66094" lon="-3.85337">
        <ele>61</ele>
        <time>2022-08-18T12:36:22+02:00</time>
      </trkpt>
      <trkpt lat="48.66079" lon="-3.8531">
        <ele>61</ele>
        <time>2022-08-18T12:36:41+02:00</time>
      </trkpt>
      <trkpt lat="48.66059" lon="-3.85294">
        <ele>66</ele>
        <time>2022-08-18T12:37:01+02:00</time>
      </trkpt>
      <trkpt lat="48.66037" lon="-3.85276">
        <ele>64</ele>
        <time>2022-08-18T12:37:21+02:00</time>
      </trkpt>
      <trkpt lat="48.66017" lon="-3.85259">
        <ele>66</ele>
        <time>2022-08-18T12:37:48+02:00</time>
      </trkpt>
      <trkpt lat="48.65994" lon="-3.85248">
        <ele>63</ele>
        <time>2022-08-18T12:38:06+02:00</time>
      </trkpt>
      <trkpt lat="48.65971" lon="-3.85242">
        <ele>63</ele>
        <time>2022-08-18T12:39:03+02:00</time>
      </trkpt>
      <trkpt lat="48.65949" lon="-3.85232">
        <ele>70</ele>
        <time>2022-08-18T12:39:25+02:00</time>
      </trkpt>
      <trkpt lat="48.65927" lon="-3.85219">
        <ele>66</ele>
        <time>2022-08-18T12:39:48+02:00</time>
      </trkpt>
      <trkpt lat="48.65904" lon="-3.85211">
        <ele>70</ele>
        <time>2022-08-18T12:40:10+02:00</time>
      </trkpt>
      <trkpt lat="48.65881" lon="-3.85197">
        <ele>70</ele>
        <time>2022-08-18T12:40:28+02:00</time>
      </trkpt>
      <trkpt lat="48.65858" lon="-3.85184">
        <ele>69</ele>
        <time>2022-08-18T12:40:49+02:00</time>
      </trkpt>
      <trkpt lat="48.65838" lon="-3.85171">
        <ele>70</ele>
        <time>2022-08-18T12:41:12+02:00</time>
      </trkpt>
      <trkpt lat="48.65816" lon="-3.85154">
        <ele>76</ele>
        <time>2022-08-18T12:41:36+02:00</time>
      </trkpt>
      <trkpt lat="48.65793" lon="-3.85141">
        <ele>76</ele>
        <time>2022-08-18T12:42:26+02:00</time>
      </trkpt>
      <trkpt lat="48.65772" lon="-3.85129">
        <ele>79</ele>
        <time>2022-08-18T12:42:53+02:00</time>
      </trkpt>
      <trkpt lat="48.6575" lon="-3.85113">
        <ele>79</ele>
        <time>2022-08-18T12:43:12+02:00</time>
      </trkpt>
      <trkpt lat="48.65726" lon="-3.85106">
        <ele>73</ele>
        <time>2022-08-18T12:43:35+02:00</time>
      </trkpt>
      <trkpt lat="48.65704" lon="-3.85093">
        <ele>73</ele>
        <time>2022-08-18T12:43:58+02:00</time>
      </trkpt>
      <trkpt lat="48.65683" lon="-3.85081">
        <ele>73</ele>
        <time>2022-08-18T12:44:19+02:00</time>
      </trkpt>
      <trkpt lat="48.65659" lon="-3.85071">
        <ele>87</ele>
        <time>2022-08-18T12:44:41+02:00</time>
      </trkpt>
      <trkpt lat="48.65634" lon="-3.85065">
        <ele>88</ele>
        <time>2022-08-18T12:45:04+02:00</time>
      </trkpt>
      <trkpt lat="48.65613" lon="-3.85055">
        <ele>89</ele>
        <time>2022-08-18T12:45:26+02:00</time>
      </trkpt>
      <trkpt lat="48.65592" lon="-3.85037">
        <ele>93</ele>
        <time>2022-08-18T12:45:49+02:00</time>
      </trkpt>
      <trkpt lat="48.65573" lon="-3.85017">
        <ele>93</ele>
        <time>2022-08-18T12:46:14+02:00</time>
      </trkpt>
      <trkpt lat="48.65559" lon="-3.84988">
        <ele>93</ele>
        <time>2022-08-18T12:46:34+02:00</time>
      </trkpt>
      <trkpt lat="48.65545" lon="-3.84959">
        <ele>94</ele>
        <time>2022-08-18T12:46:55+02:00</time>
      </trkpt>
      <trkpt lat="48.65529" lon="-3.84932">
        <ele>100</ele>
        <time>2022-08-18T12:47:17+02:00</time>
      </trkpt>
      <trkpt lat="48.65515" lon="-3.84905">
        <ele>100</ele>
        <time>2022-08-18T12:47:36+02:00</time>
      </trkpt>
      <trkpt lat="48.65496" lon="-3.84879">
        <ele>95</ele>
        <time>2022-08-18T12:48:01+02:00</time>
      </trkpt>
      <trkpt lat="48.65478" lon="-3.84855">
        <ele>96</ele>
        <time>2022-08-18T12:48:23+02:00</time>
      </trkpt>
      <trkpt lat="48.65457" lon="-3.84838">
        <ele>100</ele>
        <time>2022-08-18T12:48:44+02:00</time>
      </trkpt>
      <trkpt lat="48.65436" lon="-3.84821">
        <ele>101</ele>
        <time>2022-08-18T12:49:05+02:00</time>
      </trkpt>
      <trkpt lat="48.65416" lon="-3.84804">
        <ele>101</ele>
        <time>2022-08-18T12:49:21+02:00</time>
      </trkpt>
      <trkpt lat="48.65395" lon="-3.84783">
        <ele>104</ele>
        <time>2022-08-18T12:49:47+02:00</time>
      </trkpt>
      <trkpt lat="48.65375" lon="-3.84767">
        <ele>103</ele>
        <time>2022-08-18T12:50:06+02:00</time>
      </trkpt>
      <trkpt lat="48.65354" lon="-3.84786">
        <ele>103</ele>
        <time>2022-08-18T12:50:30+02:00</time>
      </trkpt>
      <trkpt lat="48.65339" lon="-3.84818">
        <ele>103</ele>
        <time>2022-08-18T12:50:52+02:00</time>
      </trkpt>
      <trkpt lat="48.65332" lon="-3.84851">
        <ele>102</ele>
        <time>2022-08-18T12:51:10+02:00</time>
      </trkpt>
      <trkpt lat="48.65324" lon="-3.84884">
        <ele>102</ele>
        <time>2022-08-18T12:51:29+02:00</time>
      </trkpt>
      <trkpt lat="48.65316" lon="-3.84916">
        <ele>104</ele>
        <time>2022-08-18T12:51:44+02:00</time>
      </trkpt>
      <trkpt lat="48.65293" lon="-3.84906">
        <ele>102</ele>
        <time>2022-08-18T12:52:02+02:00</time>
      </trkpt>
      <trkpt lat="48.6527" lon="-3.84911">
        <ele>103</ele>
        <time>2022-08-18T12:52:26+02:00</time>
      </trkpt>
      <trkpt lat="48.6526" lon="-3.84946">
        <ele>104</ele>
        <time>2022-08-18T12:52:42+02:00</time>
      </trkpt>
      <trkpt lat="48.65247" lon="-3.84975">
        <ele>103</ele>
        <time>2022-08-18T12:53:00+02:00</time>
      </trkpt>
      <trkpt lat="48.65233" lon="-3.85005">
        <ele>103</ele>
        <time>2022-08-18T12:53:20+02:00</time>
      </trkpt>
      <trkpt lat="48.65217" lon="-3.85032">
        <ele>103</ele>
        <time>2022-08-18T12:53:40+02:00</time>
      </trkpt>
      <trkpt lat="48.65201" lon="-3.85056">
        <ele>104</ele>
        <time>2022-08-18T12:53:57+02:00</time>
      </trkpt>
      <trkpt lat="48.65181" lon="-3.85075">
        <ele>102</ele>
        <time>2022-08-18T12:54:17+02:00</time>
      </trkpt>
      <trkpt lat="48.65159" lon="-3.85057">
        <ele>102</ele>
        <time>2022-08-18T12:54:35+02:00</time>
      </trkpt>
      <trkpt lat="48.65139" lon="-3.85039">
        <ele>102</ele>
        <time>2022-08-18T12:54:53+02:00</time>
      </trkpt>
      <trkpt lat="48.65118" lon="-3.8502">
        <ele>104</ele>
        <time>2022-08-18T12:55:14+02:00</time>
      </trkpt>
      <trkpt lat="48.65095" lon="-3.85005">
        <ele>107</ele>
        <time>2022-08-18T12:55:33+02:00</time>
      </trkpt>
      <trkpt lat="48.65075" lon="-3.84984">
        <ele>107</ele>
        <time>2022-08-18T12:55:52+02:00</time>
      </trkpt>
      <trkpt lat="48.65058" lon="-3.84958">
        <ele>106</ele>
        <time>2022-08-18T12:56:10+02:00</time>
      </trkpt>
      <trkpt lat="48.6504" lon="-3.84936">
        <ele>105</ele>
        <time>2022-08-18T12:56:28+02:00</time>
      </trkpt>
      <trkpt lat="48.65021" lon="-3.84911">
        <ele>104</ele>
        <time>2022-08-18T12:56:48+02:00</time>
      </trkpt>
      <trkpt lat="48.65002" lon="-3.84888">
        <ele>105</ele>
        <time>2022-08-18T12:57:10+02:00</time>
      </trkpt>
      <trkpt lat="48.64981" lon="-3.84872">
        <ele>106</ele>
        <time>2022-08-18T12:57:28+02:00</time>
      </trkpt>
      <trkpt lat="48.64958" lon="-3.84862">
        <ele>106</ele>
        <time>2022-08-18T12:57:49+02:00</time>
      </trkpt>
      <trkpt lat="48.64936" lon="-3.8485">
        <ele>103</ele>
        <time>2022-08-18T12:58:11+02:00</time>
      </trkpt>
      <trkpt lat="48.64916" lon="-3.84833">
        <ele>102</ele>
        <time>2022-08-18T12:58:26+02:00</time>
      </trkpt>
      <trkpt lat="48.64898" lon="-3.84808">
        <ele>101</ele>
        <time>2022-08-18T12:58:47+02:00</time>
      </trkpt>
      <trkpt lat="48.64883" lon="-3.84779">
        <ele>98</ele>
        <time>2022-08-18T12:59:05+02:00</time>
      </trkpt>
      <trkpt lat="48.64871" lon="-3.84746">
        <ele>97</ele>
        <time>2022-08-18T12:59:26+02:00</time>
      </trkpt>
      <trkpt lat="48.64857" lon="-3.84715">
        <ele>100</ele>
        <time>2022-08-18T12:59:42+02:00</time>
      </trkpt>
      <trkpt lat="48.6484" lon="-3.84688">
        <ele>94</ele>
        <time>2022-08-18T13:00:02+02:00</time>
      </trkpt>
      <trkpt lat="48.64825" lon="-3.84661">
        <ele>79</ele>
        <time>2022-08-18T13:00:22+02:00</time>
      </trkpt>
      <trkpt lat="48.6481" lon="-3.84634">
        <ele>79</ele>
        <time>2022-08-18T13:00:40+02:00</time>
      </trkpt>
      <trkpt lat="48.64795" lon="-3.84606">
        <ele>79</ele>
        <time>2022-08-18T13:00:56+02:00</time>
      </trkpt>
      <trkpt lat="48.6478" lon="-3.84578">
        <ele>79</ele>
        <time>2022-08-18T13:01:14+02:00</time>
      </trkpt>
      <trkpt lat="48.64765" lon="-3.84548">
        <ele>79</ele>
        <time>2022-08-18T13:01:36+02:00</time>
      </trkpt>
      <trkpt lat="48.64753" lon="-3.84514">
        <ele>94</ele>
        <time>2022-08-18T13:01:54+02:00</time>
      </trkpt>
      <trkpt lat="48.6474" lon="-3.84482">
        <ele>96</ele>
        <time>2022-08-18T13:02:13+02:00</time>
      </trkpt>
      <trkpt lat="48.64726" lon="-3.84451">
        <ele>99</ele>
        <time>2022-08-18T13:02:35+02:00</time>
      </trkpt>
      <trkpt lat="48.64708" lon="-3.84429">
        <ele>101</ele>
        <time>2022-08-18T13:02:50+02:00</time>
      </trkpt>
      <trkpt lat="48.64686" lon="-3.84422">
        <ele>98</ele>
        <time>2022-08-18T13:03:09+02:00</time>
      </trkpt>
      <trkpt lat="48.64665" lon="-3.84402">
        <ele>106</ele>
        <time>2022-08-18T13:03:50+02:00</time>
      </trkpt>
      <trkpt lat="48.64651" lon="-3.84372">
        <ele>104</ele>
        <time>2022-08-18T13:04:10+02:00</time>
      </trkpt>
      <trkpt lat="48.64639" lon="-3.84342">
        <ele>109</ele>
        <time>2022-08-18T13:04:29+02:00</time>
      </trkpt>
      <trkpt lat="48.64627" lon="-3.84312">
        <ele>109</ele>
        <time>2022-08-18T13:04:50+02:00</time>
      </trkpt>
      <trkpt lat="48.64612" lon="-3.8428">
        <ele>111</ele>
        <time>2022-08-18T13:05:14+02:00</time>
      </trkpt>
      <trkpt lat="48.64594" lon="-3.84259">
        <ele>110</ele>
        <time>2022-08-18T13:05:35+02:00</time>
      </trkpt>
      <trkpt lat="48.6457" lon="-3.84258">
        <ele>107</ele>
        <time>2022-08-18T13:05:57+02:00</time>
      </trkpt>
      <trkpt lat="48.64546" lon="-3.84257">
        <ele>112</ele>
        <time>2022-08-18T13:06:18+02:00</time>
      </trkpt>
      <trkpt lat="48.64521" lon="-3.84262">
        <ele>113</ele>
        <time>2022-08-18T13:06:40+02:00</time>
      </trkpt>
      <trkpt lat="48.64496" lon="-3.84255">
        <ele>110</ele>
        <time>2022-08-18T13:06:58+02:00</time>
      </trkpt>
      <trkpt lat="48.64473" lon="-3.84245">
        <ele>112</ele>
        <time>2022-08-18T13:07:20+02:00</time>
      </trkpt>
      <trkpt lat="48.6445" lon="-3.8424">
        <ele>111</ele>
        <time>2022-08-18T13:07:42+02:00</time>
      </trkpt>
      <trkpt lat="48.64437" lon="-3.8427">
        <ele>115</ele>
        <time>2022-08-18T13:08:01+02:00</time>
      </trkpt>
      <trkpt lat="48.64425" lon="-3.84303">
        <ele>108</ele>
        <time>2022-08-18T13:08:23+02:00</time>
      </trkpt>
      <trkpt lat="48.64408" lon="-3.84329">
        <ele>107</ele>
        <time>2022-08-18T13:08:42+02:00</time>
      </trkpt>
      <trkpt lat="48.644" lon="-3.84362">
        <ele>108</ele>
        <time>2022-08-18T13:10:25+02:00</time>
      </trkpt>
      <trkpt lat="48.64399" lon="-3.84397">
        <ele>101</ele>
        <time>2022-08-18T13:10:51+02:00</time>
      </trkpt>
      <trkpt lat="48.64393" lon="-3.84431">
        <ele>101</ele>
        <time>2022-08-18T13:11:04+02:00</time>
      </trkpt>
      <trkpt lat="48.64388" lon="-3.84466">
        <ele>100</ele>
        <time>2022-08-18T13:11:50+02:00</time>
      </trkpt>
      <trkpt lat="48.64382" lon="-3.84499">
        <ele>98</ele>
        <time>2022-08-18T13:12:10+02:00</time>
      </trkpt>
      <trkpt lat="48.64374" lon="-3.84532">
        <ele>96</ele>
        <time>2022-08-18T13:13:36+02:00</time>
      </trkpt>
      <trkpt lat="48.64367" lon="-3.8457">
        <ele>96</ele>
        <time>2022-08-18T13:15:02+02:00</time>
      </trkpt>
      <trkpt lat="48.64353" lon="-3.84601">
        <ele>96</ele>
        <time>2022-08-18T13:16:04+02:00</time>
      </trkpt>
      <trkpt lat="48.64339" lon="-3.84629">
        <ele>100</ele>
        <time>2022-08-18T13:16:22+02:00</time>
      </trkpt>
      <trkpt lat="48.64318" lon="-3.84613">
        <ele>95</ele>
        <time>2022-08-18T13:17:25+02:00</time>
      </trkpt>
      <trkpt lat="48.64297" lon="-3.84595">
        <ele>96</ele>
        <time>2022-08-18T13:17:42+02:00</time>
      </trkpt>
      <trkpt lat="48.64278" lon="-3.84576">
        <ele>94</ele>
        <time>2022-08-18T13:18:03+02:00</time>
      </trkpt>
      <trkpt lat="48.64265" lon="-3.84545">
        <ele>92</ele>
        <time>2022-08-18T13:18:25+02:00</time>
      </trkpt>
      <trkpt lat="48.64247" lon="-3.84523">
        <ele>87</ele>
        <time>2022-08-18T13:18:45+02:00</time>
      </trkpt>
      <trkpt lat="48.64225" lon="-3.8454">
        <ele>91</ele>
        <time>2022-08-18T13:19:09+02:00</time>
      </trkpt>
      <trkpt lat="48.64209" lon="-3.84568">
        <ele>92</ele>
        <time>2022-08-18T13:21:15+02:00</time>
      </trkpt>
      <trkpt lat="48.64187" lon="-3.84579">
        <ele>89</ele>
        <time>2022-08-18T13:21:34+02:00</time>
      </trkpt>
      <trkpt lat="48.64164" lon="-3.84593">
        <ele>89</ele>
        <time>2022-08-18T13:21:55+02:00</time>
      </trkpt>
      <trkpt lat="48.64141" lon="-3.84607">
        <ele>98</ele>
        <time>2022-08-18T13:23:32+02:00</time>
      </trkpt>
      <trkpt lat="48.64164" lon="-3.84592">
        <ele>89</ele>
        <time>2022-08-18T13:24:00+02:00</time>
      </trkpt>
      <trkpt lat="48.64186" lon="-3.84586">
        <ele>87</ele>
        <time>2022-08-18T13:25:16+02:00</time>
      </trkpt>
      <trkpt lat="48.64207" lon="-3.84567">
        <ele>88</ele>
        <time>2022-08-18T13:25:43+02:00</time>
      </trkpt>
      <trkpt lat="48.64224" lon="-3.84541">
        <ele>93</ele>
        <time>2022-08-18T13:26:00+02:00</time>
      </trkpt>
      <trkpt lat="48.64239" lon="-3.84513">
        <ele>96</ele>
        <time>2022-08-18T13:27:09+02:00</time>
      </trkpt>
      <trkpt lat="48.64244" lon="-3.84477">
        <ele>95</ele>
        <time>2022-08-18T13:27:26+02:00</time>
      </trkpt>
      <trkpt lat="48.64239" lon="-3.84442">
        <ele>97</ele>
        <time>2022-08-18T13:27:45+02:00</time>
      </trkpt>
      <trkpt lat="48.64234" lon="-3.84407">
        <ele>95</ele>
        <time>2022-08-18T13:28:02+02:00</time>
      </trkpt>
      <trkpt lat="48.64229" lon="-3.84374">
        <ele>95</ele>
        <time>2022-08-18T13:28:22+02:00</time>
      </trkpt>
      <trkpt lat="48.64223" lon="-3.84336">
        <ele>94</ele>
        <time>2022-08-18T13:28:42+02:00</time>
      </trkpt>
      <trkpt lat="48.64222" lon="-3.84301">
        <ele>95</ele>
        <time>2022-08-18T13:29:00+02:00</time>
      </trkpt>
      <trkpt lat="48.6422" lon="-3.84263">
        <ele>96</ele>
        <time>2022-08-18T13:30:55+02:00</time>
      </trkpt>
      <trkpt lat="48.64202" lon="-3.84238">
        <ele>97</ele>
        <time>2022-08-18T13:31:15+02:00</time>
      </trkpt>
      <trkpt lat="48.64186" lon="-3.84213">
        <ele>101</ele>
        <time>2022-08-18T13:31:36+02:00</time>
      </trkpt>
      <trkpt lat="48.64169" lon="-3.84184">
        <ele>106</ele>
        <time>2022-08-18T13:31:57+02:00</time>
      </trkpt>
      <trkpt lat="48.64149" lon="-3.84163">
        <ele>108</ele>
        <time>2022-08-18T13:32:17+02:00</time>
      </trkpt>
      <trkpt lat="48.64131" lon="-3.84142">
        <ele>109</ele>
        <time>2022-08-18T13:32:36+02:00</time>
      </trkpt>
      <trkpt lat="48.64107" lon="-3.84137">
        <ele>108</ele>
        <time>2022-08-18T13:32:54+02:00</time>
      </trkpt>
      <trkpt lat="48.64085" lon="-3.84143">
        <ele>109</ele>
        <time>2022-08-18T13:33:13+02:00</time>
      </trkpt>
      <trkpt lat="48.64061" lon="-3.8415">
        <ele>108</ele>
        <time>2022-08-18T13:33:33+02:00</time>
      </trkpt>
      <trkpt lat="48.64041" lon="-3.84174">
        <ele>108</ele>
        <time>2022-08-18T13:33:57+02:00</time>
      </trkpt>
      <trkpt lat="48.64022" lon="-3.84198">
        <ele>104</ele>
        <time>2022-08-18T13:34:16+02:00</time>
      </trkpt>
      <trkpt lat="48.64001" lon="-3.84216">
        <ele>105</ele>
        <time>2022-08-18T13:35:40+02:00</time>
      </trkpt>
      <trkpt lat="48.6398" lon="-3.84235">
        <ele>106</ele>
        <time>2022-08-18T13:36:35+02:00</time>
      </trkpt>
      <trkpt lat="48.63958" lon="-3.84245">
        <ele>102</ele>
        <time>2022-08-18T13:36:54+02:00</time>
      </trkpt>
      <trkpt lat="48.63937" lon="-3.84233">
        <ele>101</ele>
        <time>2022-08-18T13:37:24+02:00</time>
      </trkpt>
      <trkpt lat="48.63919" lon="-3.84207">
        <ele>101</ele>
        <time>2022-08-18T13:37:46+02:00</time>
      </trkpt>
      <trkpt lat="48.63907" lon="-3.84177">
        <ele>103</ele>
        <time>2022-08-18T13:38:04+02:00</time>
      </trkpt>
      <trkpt lat="48.63897" lon="-3.84145">
        <ele>100</ele>
        <time>2022-08-18T13:38:23+02:00</time>
      </trkpt>
      <trkpt lat="48.63884" lon="-3.84114">
        <ele>95</ele>
        <time>2022-08-18T13:38:43+02:00</time>
      </trkpt>
      <trkpt lat="48.63876" lon="-3.84081">
        <ele>96</ele>
        <time>2022-08-18T13:38:59+02:00</time>
      </trkpt>
      <trkpt lat="48.63856" lon="-3.84059">
        <ele>94</ele>
        <time>2022-08-18T13:39:17+02:00</time>
      </trkpt>
      <trkpt lat="48.63835" lon="-3.84069">
        <ele>94</ele>
        <time>2022-08-18T13:39:39+02:00</time>
      </trkpt>
      <trkpt lat="48.63812" lon="-3.84078">
        <ele>95</ele>
        <time>2022-08-18T13:39:57+02:00</time>
      </trkpt>
      <trkpt lat="48.63789" lon="-3.84088">
        <ele>93</ele>
        <time>2022-08-18T13:40:12+02:00</time>
      </trkpt>
      <trkpt lat="48.63774" lon="-3.84114">
        <ele>93</ele>
        <time>2022-08-18T13:40:27+02:00</time>
      </trkpt>
      <trkpt lat="48.63753" lon="-3.84136">
        <ele>89</ele>
        <time>2022-08-18T13:40:51+02:00</time>
      </trkpt>
      <trkpt lat="48.63733" lon="-3.8416">
        <ele>94</ele>
        <time>2022-08-18T13:41:10+02:00</time>
      </trkpt>
      <trkpt lat="48.63717" lon="-3.84183">
        <ele>96</ele>
        <time>2022-08-18T13:41:29+02:00</time>
      </trkpt>
      <trkpt lat="48.63705" lon="-3.84214">
        <ele>93</ele>
        <time>2022-08-18T13:41:46+02:00</time>
      </trkpt>
      <trkpt lat="48.63698" lon="-3.84254">
        <ele>88</ele>
        <time>2022-08-18T13:42:00+02:00</time>
      </trkpt>
      <trkpt lat="48.6369" lon="-3.84288">
        <ele>92</ele>
        <time>2022-08-18T13:42:25+02:00</time>
      </trkpt>
      <trkpt lat="48.63692" lon="-3.84324">
        <ele>100</ele>
        <time>2022-08-18T13:42:38+02:00</time>
      </trkpt>
      <trkpt lat="48.63698" lon="-3.84357">
        <ele>99</ele>
        <time>2022-08-18T13:42:52+02:00</time>
      </trkpt>
      <trkpt lat="48.63692" lon="-3.84395">
        <ele>101</ele>
        <time>2022-08-18T13:43:17+02:00</time>
      </trkpt>
      <trkpt lat="48.63695" lon="-3.84431">
        <ele>92</ele>
        <time>2022-08-18T13:43:32+02:00</time>
      </trkpt>
      <trkpt lat="48.63695" lon="-3.84468">
        <ele>94</ele>
        <time>2022-08-18T13:43:53+02:00</time>
      </trkpt>
      <trkpt lat="48.63691" lon="-3.84507">
        <ele>99</ele>
        <time>2022-08-18T13:44:13+02:00</time>
      </trkpt>
      <trkpt lat="48.63694" lon="-3.84541">
        <ele>96</ele>
        <time>2022-08-18T13:44:26+02:00</time>
      </trkpt>
      <trkpt lat="48.6369" lon="-3.84575">
        <ele>90</ele>
        <time>2022-08-18T13:44:48+02:00</time>
      </trkpt>
      <trkpt lat="48.63688" lon="-3.84609">
        <ele>85</ele>
        <time>2022-08-18T13:45:02+02:00</time>
      </trkpt>
      <trkpt lat="48.63682" lon="-3.84645">
        <ele>66</ele>
        <time>2022-08-18T13:45:19+02:00</time>
      </trkpt>
      <trkpt lat="48.63679" lon="-3.84683">
        <ele>66</ele>
        <time>2022-08-18T13:45:34+02:00</time>
      </trkpt>
      <trkpt lat="48.6368" lon="-3.84717">
        <ele>66</ele>
        <time>2022-08-18T13:45:50+02:00</time>
      </trkpt>
      <trkpt lat="48.63665" lon="-3.84743">
        <ele>66</ele>
        <time>2022-08-18T13:46:07+02:00</time>
      </trkpt>
      <trkpt lat="48.63642" lon="-3.84734">
        <ele>65</ele>
        <time>2022-08-18T13:46:39+02:00</time>
      </trkpt>
      <trkpt lat="48.63628" lon="-3.84764">
        <ele>65</ele>
        <time>2022-08-18T13:47:05+02:00</time>
      </trkpt>
      <trkpt lat="48.63606" lon="-3.84774">
        <ele>68</ele>
        <time>2022-08-18T13:47:28+02:00</time>
      </trkpt>
      <trkpt lat="48.63582" lon="-3.84768">
        <ele>75</ele>
        <time>2022-08-18T13:47:53+02:00</time>
      </trkpt>
      <trkpt lat="48.63558" lon="-3.84769">
        <ele>83</ele>
        <time>2022-08-18T13:48:17+02:00</time>
      </trkpt>
      <trkpt lat="48.63533" lon="-3.8477">
        <ele>83</ele>
        <time>2022-08-18T13:48:42+02:00</time>
      </trkpt>
      <trkpt lat="48.63507" lon="-3.84773">
        <ele>84</ele>
        <time>2022-08-18T13:49:03+02:00</time>
      </trkpt>
      <trkpt lat="48.63482" lon="-3.84772">
        <ele>75</ele>
        <time>2022-08-18T13:49:22+02:00</time>
      </trkpt>
      <trkpt lat="48.63458" lon="-3.84765">
        <ele>75</ele>
        <time>2022-08-18T13:49:46+02:00</time>
      </trkpt>
      <trkpt lat="48.63432" lon="-3.84771">
        <ele>80</ele>
        <time>2022-08-18T13:50:02+02:00</time>
      </trkpt>
      <trkpt lat="48.63408" lon="-3.84771">
        <ele>75</ele>
        <time>2022-08-18T13:50:20+02:00</time>
      </trkpt>
      <trkpt lat="48.63388" lon="-3.84747">
        <ele>81</ele>
        <time>2022-08-18T13:50:40+02:00</time>
      </trkpt>
      <trkpt lat="48.63366" lon="-3.84741">
        <ele>85</ele>
        <time>2022-08-18T13:51:00+02:00</time>
      </trkpt>
      <trkpt lat="48.63342" lon="-3.84735">
        <ele>84</ele>
        <time>2022-08-18T13:51:14+02:00</time>
      </trkpt>
      <trkpt lat="48.6332" lon="-3.84724">
        <ele>80</ele>
        <time>2022-08-18T13:51:28+02:00</time>
      </trkpt>
      <trkpt lat="48.63299" lon="-3.84707">
        <ele>77</ele>
        <time>2022-08-18T13:51:54+02:00</time>
      </trkpt>
      <trkpt lat="48.63277" lon="-3.84692">
        <ele>85</ele>
        <time>2022-08-18T13:52:20+02:00</time>
      </trkpt>
      <trkpt lat="48.63254" lon="-3.84679">
        <ele>84</ele>
        <time>2022-08-18T13:52:44+02:00</time>
      </trkpt>
      <trkpt lat="48.63233" lon="-3.84667">
        <ele>83</ele>
        <time>2022-08-18T13:53:06+02:00</time>
      </trkpt>
      <trkpt lat="48.63209" lon="-3.84663">
        <ele>87</ele>
        <time>2022-08-18T13:53:30+02:00</time>
      </trkpt>
      <trkpt lat="48.6319" lon="-3.84645">
        <ele>90</ele>
        <time>2022-08-18T13:53:48+02:00</time>
      </trkpt>
      <trkpt lat="48.63171" lon="-3.84622">
        <ele>86</ele>
        <time>2022-08-18T13:54:10+02:00</time>
      </trkpt>
      <trkpt lat="48.6315" lon="-3.84605">
        <ele>93</ele>
        <time>2022-08-18T13:54:36+02:00</time>
      </trkpt>
      <trkpt lat="48.63128" lon="-3.84584">
        <ele>93</ele>
        <time>2022-08-18T13:54:55+02:00</time>
      </trkpt>
      <trkpt lat="48.63125" lon="-3.84549">
        <ele>92</ele>
        <time>2022-08-18T13:56:19+02:00</time>
      </trkpt>
      <trkpt lat="48.63131" lon="-3.84514">
        <ele>99</ele>
        <time>2022-08-18T13:56:42+02:00</time>
      </trkpt>
      <trkpt lat="48.63134" lon="-3.8448">
        <ele>100</ele>
        <time>2022-08-18T13:57:00+02:00</time>
      </trkpt>
      <trkpt lat="48.63133" lon="-3.84444">
        <ele>102</ele>
        <time>2022-08-18T13:57:22+02:00</time>
      </trkpt>
      <trkpt lat="48.63136" lon="-3.8441">
        <ele>95</ele>
        <time>2022-08-18T14:00:45+02:00</time>
      </trkpt>
      <trkpt lat="48.63151" lon="-3.84385">
        <ele>106</ele>
        <time>2022-08-18T14:02:11+02:00</time>
      </trkpt>
      <trkpt lat="48.63158" lon="-3.8435">
        <ele>110</ele>
        <time>2022-08-18T14:03:03+02:00</time>
      </trkpt>
      <trkpt lat="48.6316" lon="-3.84316">
        <ele>101</ele>
        <time>2022-08-18T14:03:20+02:00</time>
      </trkpt>
      <trkpt lat="48.63174" lon="-3.8429">
        <ele>110</ele>
        <time>2022-08-18T14:03:42+02:00</time>
      </trkpt>
      <trkpt lat="48.63173" lon="-3.84254">
        <ele>103</ele>
        <time>2022-08-18T14:04:52+02:00</time>
      </trkpt>
      <trkpt lat="48.63157" lon="-3.84227">
        <ele>102</ele>
        <time>2022-08-18T14:05:12+02:00</time>
      </trkpt>
      <trkpt lat="48.63137" lon="-3.84208">
        <ele>102</ele>
        <time>2022-08-18T14:05:34+02:00</time>
      </trkpt>
      <trkpt lat="48.63114" lon="-3.84197">
        <ele>95</ele>
        <time>2022-08-18T14:05:51+02:00</time>
      </trkpt>
      <trkpt lat="48.6309" lon="-3.84187">
        <ele>96</ele>
        <time>2022-08-18T14:06:10+02:00</time>
      </trkpt>
      <trkpt lat="48.63067" lon="-3.84192">
        <ele>91</ele>
        <time>2022-08-18T14:06:31+02:00</time>
      </trkpt>
      <trkpt lat="48.63045" lon="-3.84211">
        <ele>88</ele>
        <time>2022-08-18T14:06:50+02:00</time>
      </trkpt>
      <trkpt lat="48.63024" lon="-3.84229">
        <ele>88</ele>
        <time>2022-08-18T14:07:07+02:00</time>
      </trkpt>
      <trkpt lat="48.63007" lon="-3.84257">
        <ele>85</ele>
        <time>2022-08-18T14:07:28+02:00</time>
      </trkpt>
      <trkpt lat="48.62992" lon="-3.84284">
        <ele>85</ele>
        <time>2022-08-18T14:07:57+02:00</time>
      </trkpt>
      <trkpt lat="48.62981" lon="-3.84318">
        <ele>74</ele>
        <time>2022-08-18T14:08:16+02:00</time>
      </trkpt>
      <trkpt lat="48.62968" lon="-3.84349">
        <ele>77</ele>
        <time>2022-08-18T14:08:37+02:00</time>
      </trkpt>
      <trkpt lat="48.62944" lon="-3.84359">
        <ele>70</ele>
        <time>2022-08-18T14:08:53+02:00</time>
      </trkpt>
      <trkpt lat="48.62942" lon="-3.84397">
        <ele>70</ele>
        <time>2022-08-18T14:09:21+02:00</time>
      </trkpt>
      <trkpt lat="48.62935" lon="-3.84431">
        <ele>56</ele>
        <time>2022-08-18T14:12:32+02:00</time>
      </trkpt>
      <trkpt lat="48.62932" lon="-3.84469">
        <ele>56</ele>
        <time>2022-08-18T14:12:49+02:00</time>
      </trkpt>
      <trkpt lat="48.6293" lon="-3.84503">
        <ele>56</ele>
        <time>2022-08-18T14:13:19+02:00</time>
      </trkpt>
      <trkpt lat="48.62944" lon="-3.84534">
        <ele>56</ele>
        <time>2022-08-18T14:13:38+02:00</time>
      </trkpt>
      <trkpt lat="48.62963" lon="-3.84556">
        <ele>55</ele>
        <time>2022-08-18T14:13:55+02:00</time>
      </trkpt>
      <trkpt lat="48.62978" lon="-3.84582">
        <ele>56</ele>
        <time>2022-08-18T14:14:13+02:00</time>
      </trkpt>
      <trkpt lat="48.62994" lon="-3.84609">
        <ele>57</ele>
        <time>2022-08-18T14:14:30+02:00</time>
      </trkpt>
      <trkpt lat="48.63015" lon="-3.84631">
        <ele>57</ele>
        <time>2022-08-18T14:14:53+02:00</time>
      </trkpt>
    </trkseg>
  </trk>
</gpx>